createdAt,value
2022-08-02T07:12:30.391Z,99.90
2022-08-02T07:19:56.755Z,99.90
2022-08-02T07:24:51.628Z,99.90
2022-08-02T07:34:51.320Z,99.90
2022-08-02T09:12:18.560Z,99.90
2022-08-02T09:17:18.391Z,99.40
2022-08-02T09:55:11.942Z,99.90
2022-08-02T10:30:35.024Z,74.60
2022-08-02T10:33:03.688Z,75.80
2022-08-02T10:35:35.870Z,76.50
2022-08-02T10:38:08.011Z,76.70
2022-08-02T10:40:48.890Z,77.40
2022-08-02T10:56:53.829Z,69.30
2022-08-02T11:24:31.144Z,58.80
2022-08-02T11:26:59.866Z,58.50
2022-08-02T11:29:41.697Z,60.50
2022-08-02T11:32:31.166Z,63.10
2022-08-02T11:34:58.992Z,66.20
2022-08-02T11:37:41.912Z,64.10
2022-08-02T11:40:19.802Z,67.20
2022-08-02T11:42:51.245Z,68.80
2022-08-02T11:45:21.117Z,70.40
2022-08-02T11:47:51.991Z,72.10
2022-08-02T11:50:30.464Z,76.60
2022-08-02T11:52:57.509Z,88.90
2022-08-02T11:55:32.186Z,84.10
2022-08-02T11:58:04.670Z,83.00
2022-08-02T12:00:32.476Z,83.10
2022-08-02T12:02:59.722Z,82.30
2022-08-02T12:05:55.765Z,82.10
2022-08-02T12:10:52.519Z,62.90
2022-08-02T12:13:19.442Z,64.00
2022-08-02T12:18:38.562Z,62.40
2022-08-02T12:21:25.456Z,61.50
2022-08-02T12:23:58.784Z,61.30
2022-08-02T12:26:29.000Z,61.50
2022-08-02T12:28:57.776Z,63.20
2022-08-02T12:31:55.806Z,60.20
2022-08-02T12:34:32.001Z,59.00
2022-08-02T12:37:07.758Z,59.80
2022-08-02T12:39:46.771Z,61.00
2022-08-02T12:42:16.148Z,60.50
2022-08-02T12:44:58.832Z,57.70
2022-08-02T12:47:35.559Z,58.30
2022-08-02T12:50:18.170Z,57.40
2022-08-02T12:52:47.113Z,58.00
2022-08-02T12:55:18.914Z,57.50
2022-08-02T12:57:53.837Z,57.40
2022-08-02T13:00:25.994Z,58.60
2022-08-02T13:05:23.708Z,58.10
2022-08-02T13:07:50.734Z,55.70
2022-08-02T13:10:18.073Z,58.50
2022-08-02T13:12:45.501Z,57.40
2022-08-02T13:15:49.967Z,55.90
2022-08-02T13:18:01.272Z,54.40
2022-08-02T13:20:29.240Z,56.60
2022-08-02T13:22:56.389Z,56.50
2022-08-02T13:25:31.352Z,60.00
2022-08-02T13:27:58.263Z,57.60
2022-08-02T13:30:25.082Z,58.10
2022-08-02T13:32:52.002Z,58.20
2022-08-02T13:35:18.844Z,57.90
2022-08-02T13:37:47.784Z,57.10
2022-08-02T13:40:22.704Z,59.10
2022-08-02T13:42:50.090Z,58.50
2022-08-02T13:45:17.177Z,56.90
2022-08-02T13:47:57.436Z,57.20
2022-08-02T13:50:30.522Z,58.70
2022-08-02T13:52:57.408Z,59.00
2022-08-02T13:55:24.417Z,59.70
2022-08-02T13:57:53.565Z,57.70
2022-08-02T14:00:35.366Z,59.20
2022-08-02T14:03:07.071Z,59.40
2022-08-02T14:05:47.303Z,59.60
2022-08-02T14:08:18.804Z,59.90
2022-08-02T14:10:47.819Z,60.00
2022-08-02T14:13:14.855Z,59.20
2022-08-02T14:15:42.967Z,60.80
2022-08-02T14:18:09.949Z,60.50
2022-08-02T14:20:36.708Z,59.80
2022-08-02T14:23:03.643Z,59.00
2022-08-02T14:25:30.540Z,58.30
2022-08-02T14:27:57.352Z,59.20
2022-08-02T14:30:24.288Z,59.00
2022-08-02T14:32:51.262Z,61.30
2022-08-02T14:35:18.238Z,63.00
2022-08-02T14:37:45.119Z,62.40
2022-08-02T14:40:30.885Z,63.90
2022-08-02T14:43:00.773Z,64.40
2022-08-02T14:45:40.163Z,63.60
2022-08-02T14:48:07.422Z,64.10
2022-08-02T14:50:37.239Z,64.70
2022-08-02T14:53:04.120Z,64.60
2022-08-02T14:55:30.906Z,64.90
2022-08-02T14:57:57.721Z,64.30
2022-08-02T15:00:25.738Z,65.20
2022-08-02T15:02:55.689Z,65.20
2022-08-02T15:05:22.595Z,65.70
2022-08-02T15:07:49.861Z,66.70
2022-08-02T15:10:16.806Z,66.90
2022-08-02T15:12:45.735Z,68.10
2022-08-02T15:15:12.604Z,68.60
2022-08-02T15:17:39.443Z,69.30
2022-08-02T15:20:24.478Z,68.40
2022-08-02T15:22:51.843Z,69.30
2022-08-02T15:25:19.462Z,69.90
2022-08-02T15:27:46.270Z,70.60
2022-08-02T15:30:13.307Z,71.10
2022-08-02T15:32:40.163Z,71.40
2022-08-02T15:35:20.770Z,71.90
2022-08-02T15:37:47.657Z,71.50
2022-08-02T15:45:15.366Z,72.30
2022-08-02T15:47:50.414Z,73.80
2022-08-02T15:50:18.537Z,73.10
2022-08-02T15:52:45.297Z,74.60
2022-08-02T15:55:12.115Z,91.20
2022-08-02T15:57:39.072Z,91.50
2022-08-02T16:00:07.343Z,88.50
2022-08-02T16:02:45.021Z,88.80
2022-08-02T16:07:41.377Z,74.70
2022-08-02T16:10:08.999Z,76.60
2022-08-02T16:12:35.859Z,76.50
2022-08-02T16:15:02.619Z,76.60
2022-08-02T16:17:48.463Z,77.80
2022-08-02T16:20:16.492Z,78.60
2022-08-02T16:22:43.348Z,79.40
2022-08-02T16:25:10.813Z,79.50
2022-08-02T16:27:57.651Z,93.40
2022-08-02T16:30:31.239Z,93.40
2022-08-02T16:32:58.080Z,93.40
2022-08-02T16:35:24.904Z,93.60
2022-08-02T16:37:52.667Z,97.20
2022-08-02T16:40:20.996Z,98.80
2022-08-02T16:45:19.953Z,95.60
2022-08-02T16:47:54.949Z,98.30
2022-08-02T16:50:27.309Z,97.60
2022-08-02T16:52:59.021Z,99.00
2022-08-02T16:55:29.106Z,96.70
2022-08-02T16:57:58.066Z,98.30
2022-08-02T17:00:24.936Z,98.80
2022-08-02T17:02:51.768Z,99.90
2022-08-02T17:05:19.009Z,99.90
2022-08-02T17:08:07.083Z,99.90
2022-08-02T18:33:53.750Z,93.60
2022-08-02T18:35:19.038Z,94.00
2022-08-02T18:37:52.140Z,94.30
2022-08-02T18:40:24.454Z,94.50
2022-08-02T18:42:51.257Z,94.80
2022-08-02T18:45:19.660Z,94.80
2022-08-02T18:50:19.677Z,94.90
2022-08-02T18:52:47.973Z,95.00
2022-08-02T18:55:17.637Z,95.10
2022-08-02T18:58:18.633Z,95.60
2022-08-02T19:08:19.335Z,95.90
2022-08-02T19:10:53.066Z,96.80
2022-08-02T19:15:47.804Z,99.90
2022-08-02T19:20:48.177Z,97.30
2022-08-02T20:11:45.386Z,99.90
2022-08-02T20:14:13.275Z,99.90
2022-08-02T20:16:41.660Z,99.90
2022-08-02T20:24:10.815Z,99.90
2022-08-02T21:33:57.442Z,99.90
2022-08-02T21:51:43.060Z,99.90
2022-08-02T21:59:25.368Z,99.90
2022-08-02T22:14:44.130Z,99.90
2022-08-02T22:32:57.058Z,99.90
2022-08-02T22:35:23.973Z,99.90
2022-08-02T22:38:16.884Z,99.90
2022-08-02T22:55:32.744Z,99.90
